SWR2EG LSZH-LEPA
Flight info
| Callsign | SWR2EG |
|---|---|
| Flight time | N/A |
| Altitude | 35000 |
| Route | VEBIT DCT BERSU DCT VEVAR DCT PERUS DCT PADKO UM984 DIVKO UN852 VATIR N852 VERSO L129 LUNIK |
| Aircraft | A321/M-SDE3FGHIRWY/LB1 |
Departure
| Time | 2026-05-05 19:33 |
|---|---|
| Airport | Zürich Airport (LSZH) |
Arrival
| Time | N/A |
|---|---|
| Airport | Palma de Mallorca Airport (LEPA) |
| Time | Latitude | Longitude | Altitude | Speed | Heading |
|---|---|---|---|---|---|
| 2026-05-05 18:58 | 47.45407 | 8.56118 | 1412 ft | 0 kts | 186° |
| 2026-05-05 18:59 | 47.45407 | 8.56120 | 1412 ft | 0 kts | 186° |
| 2026-05-05 19:23 | 47.45426 | 8.56123 | 1414 ft | 4 kts | 186° |
| 2026-05-05 19:23 | 47.45446 | 8.56125 | 1412 ft | 4 kts | 180° |
| 2026-05-05 19:23 | 47.45471 | 8.56119 | 1407 ft | 4 kts | 146° |
| 2026-05-05 19:24 | 47.45484 | 8.56093 | 1410 ft | 3 kts | 96° |
| 2026-05-05 19:24 | 47.45486 | 8.56062 | 1407 ft | 0 kts | 96° |
| 2026-05-05 19:26 | 47.45484 | 8.56094 | 1410 ft | 7 kts | 96° |
| 2026-05-05 19:27 | 47.45484 | 8.56206 | 1408 ft | 12 kts | 70° |
| 2026-05-05 19:27 | 47.45540 | 8.56249 | 1413 ft | 8 kts | 10° |
| 2026-05-05 19:27 | 47.45597 | 8.56259 | 1415 ft | 8 kts | 6° |
| 2026-05-05 19:27 | 47.45623 | 8.56263 | 1416 ft | 0 kts | 6° |
| 2026-05-05 19:29 | 47.45654 | 8.56268 | 1412 ft | 13 kts | 6° |
| 2026-05-05 19:29 | 47.45767 | 8.56285 | 1418 ft | 14 kts | 6° |
| 2026-05-05 19:30 | 47.45803 | 8.56290 | 1416 ft | 0 kts | 5° |
| 2026-05-05 19:30 | 47.45820 | 8.56293 | 1415 ft | 5 kts | 5° |
| 2026-05-05 19:30 | 47.45874 | 8.56302 | 1414 ft | 10 kts | 6° |
| 2026-05-05 19:30 | 47.45903 | 8.56306 | 1417 ft | 4 kts | 6° |
| 2026-05-05 19:31 | 47.45974 | 8.56316 | 1415 ft | 12 kts | 6° |
| 2026-05-05 19:31 | 47.46079 | 8.56336 | 1411 ft | 20 kts | 6° |
| 2026-05-05 19:31 | 47.46211 | 8.56329 | 1411 ft | 16 kts | 329° |
| 2026-05-05 19:31 | 47.46250 | 8.56279 | 1413 ft | 0 kts | 316° |
| 2026-05-05 19:32 | 47.46275 | 8.56244 | 1410 ft | 20 kts | 316° |
| 2026-05-05 19:33 | 47.46584 | 8.55823 | 1401 ft | 97 kts | 316° |
| 2026-05-05 19:33 | 47.47222 | 8.54943 | 1385 ft | 152 kts | 317° |
| 2026-05-05 19:33 | 47.48074 | 8.53802 | 1780 ft | 165 kts | 318° |
| 2026-05-05 19:33 | 47.48928 | 8.52675 | 2486 ft | 165 kts | 315° |
| 2026-05-05 19:34 | 47.49866 | 8.51596 | 2946 ft | 182 kts | 327° |
| 2026-05-05 19:34 | 47.51051 | 8.50606 | 3170 ft | 205 kts | 327° |
| 2026-05-05 19:34 | 47.52282 | 8.49430 | 3543 ft | 219 kts | 312° |
| 2026-05-05 19:35 | 47.53525 | 8.45535 | 5495 ft | 209 kts | 269° |
| 2026-05-05 19:35 | 47.53298 | 8.43441 | 6255 ft | 207 kts | 248° |
| 2026-05-05 19:35 | 47.52684 | 8.41508 | 6974 ft | 207 kts | 244° |
| 2026-05-05 19:35 | 47.51870 | 8.39744 | 7652 ft | 210 kts | 225° |
| 2026-05-05 19:36 | 47.50639 | 8.38480 | 8132 ft | 228 kts | 206° |
| 2026-05-05 19:36 | 47.49015 | 8.37828 | 8371 ft | 254 kts | 195° |
| 2026-05-05 19:36 | 47.47233 | 8.37258 | 8847 ft | 267 kts | 194° |
| 2026-05-05 19:36 | 47.45404 | 8.36676 | 8996 ft | 269 kts | 194° |
| 2026-05-05 19:37 | 47.43566 | 8.36092 | 9021 ft | 269 kts | 194° |
| 2026-05-05 19:37 | 47.41742 | 8.35482 | 9021 ft | 268 kts | 199° |
| 2026-05-05 19:37 | 47.40044 | 8.34392 | 9030 ft | 266 kts | 213° |
| 2026-05-05 19:37 | 47.38604 | 8.32695 | 9038 ft | 265 kts | 227° |
| 2026-05-05 19:38 | 47.37520 | 8.30539 | 9027 ft | 260 kts | 240° |
| 2026-05-05 19:38 | 47.36688 | 8.28178 | 9027 ft | 257 kts | 241° |
| 2026-05-05 19:38 | 47.35868 | 8.25867 | 9077 ft | 259 kts | 241° |
| 2026-05-05 19:38 | 47.35025 | 8.23503 | 9825 ft | 261 kts | 241° |
| 2026-05-05 19:39 | 47.34176 | 8.21126 | 10525 ft | 263 kts | 241° |
| 2026-05-05 19:39 | 47.33286 | 8.18640 | 10773 ft | 286 kts | 241° |
| 2026-05-05 19:39 | 47.32322 | 8.15950 | 10920 ft | 307 kts | 241° |
| 2026-05-05 19:39 | 47.31302 | 8.13092 | 11294 ft | 319 kts | 241° |
| 2026-05-05 19:40 | 47.30263 | 8.10169 | 11820 ft | 325 kts | 241° |
| 2026-05-05 19:40 | 47.29207 | 8.07195 | 12368 ft | 330 kts | 242° |
| 2026-05-05 19:40 | 47.28072 | 8.04246 | 13023 ft | 332 kts | 234° |
| 2026-05-05 19:40 | 47.26542 | 8.01687 | 13643 ft | 336 kts | 222° |
| 2026-05-05 19:41 | 47.24621 | 7.99708 | 14228 ft | 341 kts | 209° |
| 2026-05-05 19:41 | 47.22396 | 7.98403 | 14808 ft | 346 kts | 200° |
| 2026-05-05 19:41 | 47.20098 | 7.97308 | 15378 ft | 349 kts | 200° |
| 2026-05-05 19:41 | 47.18561 | 7.96570 | 15744 ft | 351 kts | 200° |
| 2026-05-05 19:42 | 47.16233 | 7.95446 | 16286 ft | 354 kts | 200° |
| 2026-05-05 19:42 | 47.13888 | 7.94308 | 16837 ft | 357 kts | 200° |
| 2026-05-05 19:42 | 47.11510 | 7.93205 | 17380 ft | 360 kts | 198° |
| 2026-05-05 19:42 | 47.09090 | 7.92170 | 17915 ft | 362 kts | 197° |
| 2026-05-05 19:43 | 47.06653 | 7.91175 | 18419 ft | 365 kts | 197° |
| 2026-05-05 19:43 | 47.04196 | 7.90191 | 18851 ft | 367 kts | 197° |
| 2026-05-05 19:43 | 47.01715 | 7.89199 | 19247 ft | 370 kts | 197° |
| 2026-05-05 19:43 | 46.99228 | 7.88195 | 19668 ft | 372 kts | 197° |
| 2026-05-05 19:44 | 46.96729 | 7.87173 | 20082 ft | 374 kts | 197° |
| 2026-05-05 19:44 | 46.94244 | 7.86145 | 20492 ft | 376 kts | 197° |
| 2026-05-05 19:44 | 46.91713 | 7.85095 | 20895 ft | 379 kts | 197° |